createdAt,value
2023-05-21T05:31:33.170Z,20.6344
2023-05-21T05:32:35.139Z,21.0859
2023-05-21T05:33:37.118Z,21.4117
2023-05-21T05:34:39.171Z,21.6025
2023-05-21T05:35:41.235Z,21.7968
2023-05-21T05:36:43.274Z,21.9790
2023-05-21T05:37:45.313Z,22.1023
2023-05-21T05:38:47.380Z,22.2031
2023-05-21T05:39:49.383Z,22.2761
2023-05-21T05:40:51.430Z,22.3469
2023-05-21T05:41:53.511Z,22.3934
2023-05-21T05:42:55.553Z,22.4837
2023-05-21T05:43:57.588Z,22.5365
2023-05-21T05:44:59.632Z,22.5700
2023-05-21T05:46:01.703Z,22.6263
2023-05-21T05:47:03.709Z,22.6743
2023-05-21T05:48:05.766Z,22.6635
2023-05-21T05:49:07.806Z,22.6990
2023-05-21T05:50:09.867Z,22.7206
2023-05-21T05:51:11.920Z,22.7154
2023-05-21T05:52:13.939Z,22.7286
2023-05-21T05:53:15.976Z,22.7409
2023-05-21T05:54:18.022Z,22.7423
2023-05-21T05:55:20.098Z,22.7175
2023-05-21T05:56:22.138Z,22.7518
2023-05-21T05:57:24.155Z,22.7467
2023-05-21T05:58:26.231Z,22.7705
2023-05-21T05:59:28.288Z,22.7446
2023-05-21T06:00:30.350Z,22.7497
2023-05-21T06:01:32.370Z,22.7664
2023-05-21T06:02:34.467Z,22.7280
2023-05-21T06:03:36.679Z,22.7530
2023-05-21T06:04:38.489Z,22.7489
2023-05-21T06:05:40.780Z,22.7828
2023-05-21T06:06:42.591Z,22.7769
2023-05-21T06:07:44.608Z,22.7717
2023-05-21T06:08:46.666Z,22.7865
2023-05-21T06:09:48.715Z,22.8087
2023-05-21T06:10:50.753Z,22.7879
2023-05-21T06:11:52.793Z,22.7575
2023-05-21T06:12:54.851Z,22.7881
2023-05-21T06:13:56.884Z,22.7738
2023-05-21T06:14:58.928Z,22.7738
2023-05-21T06:16:01.043Z,22.7195
2023-05-21T06:17:03.036Z,22.7801
2023-05-21T06:18:05.071Z,22.7838
2023-05-21T06:19:07.128Z,22.7851
2023-05-21T06:20:09.129Z,22.8124
2023-05-21T06:21:11.199Z,22.7619
2023-05-21T06:22:13.262Z,22.7886
2023-05-21T06:23:15.285Z,22.7988
2023-05-21T06:24:17.312Z,22.7865
2023-05-21T06:25:19.375Z,22.8120
2023-05-21T06:26:21.414Z,22.8257
2023-05-21T06:27:23.455Z,22.8163
2023-05-21T06:28:25.490Z,22.7970
2023-05-21T06:29:27.586Z,22.8013
2023-05-21T06:30:29.608Z,22.7941
2023-05-21T06:31:31.630Z,22.7840
2023-05-21T06:32:33.821Z,22.8315
2023-05-21T06:33:35.844Z,22.8777
2023-05-21T06:34:37.793Z,22.8898
2023-05-21T06:35:39.820Z,22.8767
2023-05-21T06:36:41.884Z,22.8734
2023-05-21T06:37:43.939Z,22.8720
2023-05-21T06:38:45.970Z,22.8469
2023-05-21T06:39:48.035Z,22.8159
2023-05-21T06:40:50.049Z,22.8701
2023-05-21T06:41:52.084Z,22.8611
2023-05-21T06:42:54.149Z,22.8335
2023-05-21T06:43:56.188Z,22.7976
2023-05-21T06:44:58.239Z,22.8079
2023-05-21T06:46:00.298Z,22.8068
2023-05-21T06:47:02.305Z,22.8360
2023-05-21T06:48:04.401Z,22.8405
2023-05-21T06:49:06.426Z,22.8639
2023-05-21T06:50:08.461Z,22.8559
2023-05-21T06:51:10.526Z,22.8325
2023-05-21T06:52:12.646Z,22.8545
2023-05-21T06:53:14.580Z,22.8216
2023-05-21T06:54:16.677Z,22.8192
2023-05-21T06:55:18.701Z,22.8171
2023-05-21T06:56:20.735Z,22.8344
2023-05-21T06:57:22.774Z,22.7898
2023-05-21T06:58:24.805Z,22.7912
2023-05-21T06:59:26.869Z,22.7945
2023-05-21T07:00:28.918Z,22.8288
2023-05-21T07:01:31.024Z,22.8066
2023-05-21T07:02:33.181Z,22.7990
2023-05-21T07:03:35.090Z,22.8806
2023-05-21T07:04:37.103Z,22.8863
2023-05-21T07:05:39.643Z,22.9660
2023-05-21T07:06:41.181Z,22.9026
2023-05-21T07:07:43.224Z,22.9069
2023-05-21T07:08:45.295Z,22.9420
2023-05-21T07:09:47.344Z,22.9381
2023-05-21T07:10:49.388Z,22.9379
2023-05-21T07:11:59.002Z,22.8771
2023-05-21T07:12:54.019Z,22.9968
2023-05-21T07:13:55.588Z,22.9802
2023-05-21T07:14:59.371Z,22.9968
2023-05-21T07:15:59.599Z,23.0083
2023-05-21T07:17:01.744Z,23.0517
2023-05-21T07:18:04.519Z,23.1260
2023-05-21T07:19:05.913Z,23.1704
2023-05-21T07:20:07.769Z,23.0973
2023-05-21T07:21:09.822Z,23.1326
2023-05-21T07:22:11.906Z,23.1133
2023-05-21T07:23:13.930Z,23.1632
2023-05-21T07:24:15.982Z,23.1480
2023-05-21T07:25:18.047Z,23.2193
2023-05-21T07:26:20.045Z,23.3251
2023-05-21T07:27:25.738Z,23.3828
2023-05-21T07:28:24.174Z,23.3822
2023-05-21T07:29:26.224Z,23.3982
2023-05-21T07:30:28.252Z,23.3797
2023-05-21T07:31:30.371Z,23.4126
2023-05-21T07:32:32.357Z,23.3251
2023-05-21T07:33:34.408Z,23.2700
2023-05-21T07:34:36.444Z,23.2577
2023-05-21T07:35:38.602Z,23.3101
2023-05-21T07:36:40.567Z,23.2980
2023-05-21T07:37:42.578Z,23.3528
2023-05-21T07:38:44.620Z,23.3754
2023-05-21T07:39:46.666Z,23.3504
2023-05-21T07:40:48.707Z,23.2959
2023-05-21T07:41:50.780Z,23.3000
2023-05-21T07:42:52.836Z,23.2772
2023-05-21T07:43:54.868Z,23.3265
2023-05-21T07:44:56.918Z,23.3148
2023-05-21T07:45:58.983Z,23.3559
2023-05-21T07:47:01.011Z,23.3584
2023-05-21T07:48:03.138Z,23.3448
2023-05-21T07:49:05.120Z,23.3220
2023-05-21T07:50:07.134Z,23.3818
2023-05-21T07:51:09.210Z,23.3565
2023-05-21T07:52:11.251Z,23.4118
2023-05-21T07:53:13.336Z,23.2105
2023-05-21T07:54:15.404Z,23.1809
2023-05-21T07:55:18.034Z,23.1877
2023-05-21T07:56:19.410Z,23.2429
2023-05-21T07:57:21.500Z,23.2485
2023-05-21T07:58:23.517Z,23.2620
2023-05-21T07:59:26.586Z,23.2267
2023-05-21T08:00:27.596Z,23.2513
2023-05-21T08:01:29.662Z,23.2645
2023-05-21T08:02:31.792Z,23.2331
2023-05-21T08:03:33.920Z,23.3300
2023-05-21T08:04:37.478Z,23.2945
2023-05-21T08:05:38.147Z,23.2043
2023-05-21T08:06:40.228Z,23.2018
2023-05-21T08:07:41.918Z,23.2051
2023-05-21T08:08:44.000Z,23.1575
2023-05-21T08:09:46.052Z,23.2257
2023-05-21T08:10:48.089Z,23.2168
2023-05-21T08:11:50.222Z,23.2700
2023-05-21T08:12:52.194Z,23.3245
2023-05-21T08:13:54.250Z,23.3128
2023-05-21T08:14:56.261Z,23.2505
2023-05-21T08:15:58.339Z,23.3054
2023-05-21T08:17:00.381Z,23.3150
2023-05-21T08:18:02.535Z,23.2828
2023-05-21T08:19:04.502Z,23.2511
2023-05-21T08:20:06.512Z,23.1975
2023-05-21T08:21:08.579Z,23.1575
2023-05-21T08:22:10.655Z,23.1659
2023-05-21T08:23:12.721Z,23.1080
2023-05-21T08:24:14.819Z,23.1123
2023-05-21T08:25:16.734Z,23.2062
2023-05-21T08:26:18.821Z,23.1729
2023-05-21T08:27:20.830Z,23.1813
2023-05-21T08:28:22.900Z,23.1858
2023-05-21T08:29:24.924Z,23.1437
2023-05-21T08:30:27.146Z,23.0455
2023-05-21T08:31:29.204Z,23.0079
2023-05-21T08:32:31.124Z,22.9564
2023-05-21T08:33:33.138Z,22.9254
2023-05-21T08:34:36.685Z,22.9648
2023-05-21T08:35:37.382Z,22.9935
2023-05-21T08:36:39.359Z,22.8960
2023-05-21T08:37:41.339Z,22.9911
2023-05-21T08:38:43.362Z,23.1123
2023-05-21T08:39:45.506Z,23.2051
2023-05-21T08:40:47.456Z,23.2536
2023-05-21T08:41:49.770Z,23.3015
2023-05-21T08:42:51.594Z,23.3534
2023-05-21T08:43:54.952Z,23.3397
2023-05-21T08:44:55.727Z,23.3091
2023-05-21T08:45:57.711Z,23.4331
2023-05-21T08:46:59.759Z,23.3828
2023-05-21T08:48:01.835Z,23.3838
2023-05-21T08:49:03.868Z,23.4017
2023-05-21T08:50:05.871Z,23.3935
2023-05-21T08:51:07.937Z,23.4309
2023-05-21T08:52:09.985Z,23.4818
2023-05-21T08:53:23.417Z,23.4701
2023-05-21T08:54:14.097Z,23.5120
2023-05-21T08:55:16.122Z,23.4867
2023-05-21T08:56:18.285Z,23.4676
2023-05-21T08:57:20.256Z,23.4031
2023-05-21T08:58:22.285Z,23.4073
2023-05-21T08:59:24.342Z,23.4543
2023-05-21T09:00:26.373Z,23.4662
2023-05-21T09:01:28.498Z,23.5048
2023-05-21T09:02:30.535Z,23.5383
2023-05-21T09:03:32.579Z,23.4911
2023-05-21T09:04:34.739Z,23.5028
2023-05-21T09:05:36.797Z,23.5512
2023-05-21T09:06:38.741Z,23.6188
2023-05-21T09:07:40.745Z,23.6689
2023-05-21T09:08:42.780Z,23.5634
2023-05-21T09:09:44.823Z,23.4584
2023-05-21T09:10:46.904Z,23.4695
2023-05-21T09:11:48.927Z,23.3280
2023-05-21T09:12:52.019Z,23.2877
2023-05-21T09:13:53.032Z,23.3276
2023-05-21T09:14:55.044Z,23.3450
2023-05-21T09:15:57.099Z,23.4568
2023-05-21T09:16:59.428Z,23.5159
2023-05-21T09:18:01.237Z,23.5987
2023-05-21T09:19:04.603Z,23.5428
2023-05-21T09:20:05.350Z,23.4637
2023-05-21T09:21:07.377Z,23.4584
2023-05-21T09:22:09.415Z,23.5611
2023-05-21T09:23:11.535Z,23.5816
2023-05-21T09:24:13.518Z,23.5987
2023-05-21T09:25:15.675Z,23.6053
2023-05-21T09:26:17.614Z,23.6763
2023-05-21T09:27:19.668Z,23.6502
2023-05-21T09:28:21.756Z,23.7322
2023-05-21T09:29:23.737Z,23.6954
2023-05-21T09:30:28.814Z,23.7601
2023-05-21T09:31:27.902Z,23.7560
2023-05-21T09:32:29.964Z,23.7495
2023-05-21T09:33:32.010Z,23.7408
2023-05-21T09:34:34.060Z,23.6537
2023-05-21T09:35:37.503Z,23.6915
2023-05-21T09:36:38.192Z,23.7119
2023-05-21T09:37:40.231Z,23.6657
2023-05-21T09:38:42.283Z,23.6153
2023-05-21T09:39:44.303Z,23.5219
2023-05-21T09:40:46.396Z,23.5406
2023-05-21T09:41:48.417Z,23.5132
2023-05-21T09:42:50.488Z,23.5566
2023-05-21T09:43:52.499Z,23.5630
2023-05-21T09:44:54.536Z,23.6094
2023-05-21T09:45:57.750Z,23.6839
2023-05-21T09:46:58.843Z,23.7248
2023-05-21T09:48:00.802Z,23.8164
2023-05-21T09:49:02.746Z,23.7402
2023-05-21T09:50:04.821Z,23.7949
2023-05-21T09:51:06.816Z,23.8261
2023-05-21T09:52:08.870Z,23.8657
2023-05-21T09:53:10.968Z,23.8926
2023-05-21T09:54:12.986Z,23.8752
2023-05-21T09:55:15.019Z,23.8179
2023-05-21T09:56:17.105Z,23.7829
2023-05-21T09:57:19.131Z,23.8187
2023-05-21T09:58:21.212Z,23.9629
2023-05-21T09:59:23.799Z,23.9711
2023-05-21T10:00:25.257Z,23.9951
2023-05-21T10:01:27.374Z,24.1036
2023-05-21T10:02:29.428Z,24.1079
2023-05-21T10:03:31.434Z,24.1457
2023-05-21T10:04:33.469Z,24.1640
2023-05-21T10:05:35.521Z,24.2277
2023-05-21T10:06:37.566Z,24.2837
2023-05-21T10:07:39.595Z,24.1790
2023-05-21T10:08:41.655Z,24.1219
2023-05-21T10:09:43.714Z,24.1210
2023-05-21T10:10:45.736Z,24.1630
2023-05-21T10:11:47.801Z,24.2388
2023-05-21T10:12:49.879Z,24.1841
2023-05-21T10:13:51.882Z,24.1794
2023-05-21T10:14:53.890Z,24.2223
2023-05-21T10:15:55.950Z,24.2924
2023-05-21T10:16:58.083Z,24.3678
2023-05-21T10:18:00.080Z,24.3710
2023-05-21T10:19:02.140Z,24.3614
2023-05-21T10:20:04.135Z,24.2763
2023-05-21T10:21:06.161Z,24.2396
2023-05-21T10:22:08.209Z,24.2924
2023-05-21T10:23:10.259Z,24.2196
2023-05-21T10:24:12.312Z,24.1063
2023-05-21T10:25:14.380Z,24.0703
2023-05-21T10:26:16.394Z,24.0389
2023-05-21T10:27:18.426Z,24.0561
2023-05-21T10:28:20.518Z,24.0734
2023-05-21T10:29:22.529Z,24.2051
2023-05-21T10:30:24.559Z,24.2679
2023-05-21T10:31:26.644Z,24.1391
2023-05-21T10:32:28.966Z,24.0927
2023-05-21T10:33:30.787Z,24.0379
2023-05-21T10:34:32.738Z,24.0993
2023-05-21T10:36:36.858Z,23.8891
2023-05-21T10:37:38.905Z,23.8885
2023-05-21T10:38:41.180Z,23.8676
2023-05-21T10:39:42.973Z,23.8879
2023-05-21T10:40:45.013Z,23.8836
2023-05-21T10:41:47.163Z,23.9282
2023-05-21T10:42:49.135Z,23.9426
2023-05-21T10:43:51.202Z,24.0549
2023-05-21T10:44:53.212Z,24.0872
2023-05-21T10:45:55.361Z,24.1217
2023-05-21T10:46:57.275Z,24.1475
2023-05-21T10:47:59.318Z,24.2211
2023-05-21T10:49:01.367Z,24.3115
2023-05-21T10:50:03.415Z,24.3234
2023-05-21T10:51:05.507Z,24.3439
2023-05-21T10:52:07.508Z,24.2833
2023-05-21T10:53:10.925Z,24.3143
2023-05-21T10:54:11.571Z,24.3250
2023-05-21T10:55:13.825Z,24.2186
2023-05-21T10:56:15.729Z,24.2488
2023-05-21T10:57:17.731Z,24.4166
2023-05-21T10:58:19.748Z,24.3782
2023-05-21T10:59:21.819Z,24.3410
2023-05-21T11:00:23.853Z,24.3821
2023-05-21T11:01:26.042Z,24.4585
2023-05-21T11:02:28.003Z,24.5048
2023-05-21T11:03:30.180Z,24.5415
2023-05-21T11:04:32.023Z,24.4836
2023-05-21T11:05:34.079Z,24.5545
2023-05-21T11:06:36.128Z,24.5814
2023-05-21T11:07:38.174Z,24.6169
2023-05-21T11:08:40.217Z,24.7169
2023-05-21T11:09:42.273Z,24.7833
2023-05-21T11:10:44.288Z,24.8946
2023-05-21T11:11:46.475Z,24.8979
2023-05-21T11:12:48.382Z,24.8077
2023-05-21T11:13:50.439Z,24.8262
2023-05-21T11:14:52.445Z,24.8593
2023-05-21T11:15:54.568Z,24.8733
2023-05-21T11:16:56.578Z,24.8365
2023-05-21T11:17:58.676Z,24.8971
2023-05-21T11:19:00.902Z,24.8926
2023-05-21T11:20:02.682Z,24.9217
2023-05-21T11:21:04.747Z,24.9273
2023-05-21T11:22:06.864Z,24.9756
2023-05-21T11:23:08.824Z,25.0125
2023-05-21T11:24:10.869Z,24.9766
2023-05-21T11:25:12.909Z,25.0514
2023-05-21T11:26:14.943Z,25.1111
2023-05-21T11:27:17.118Z,25.1520
2023-05-21T11:28:19.056Z,25.1175
2023-05-21T11:29:21.113Z,25.1142
2023-05-21T11:30:23.130Z,25.0719
2023-05-21T11:31:25.219Z,24.9879
2023-05-21T11:32:27.218Z,24.9606
2023-05-21T11:33:29.375Z,24.9704
2023-05-21T11:34:31.296Z,24.8848
2023-05-21T11:35:33.346Z,24.9014
2023-05-21T11:36:36.084Z,24.8579
2023-05-21T11:37:37.404Z,24.7428
2023-05-21T11:38:39.457Z,24.8223
2023-05-21T11:39:41.600Z,24.8256
2023-05-21T11:40:43.572Z,24.8211
2023-05-21T11:41:45.610Z,24.8527
2023-05-21T11:42:47.636Z,24.8659
2023-05-21T11:43:49.681Z,24.8505
2023-05-21T11:44:51.716Z,24.9002
2023-05-21T11:45:53.852Z,24.8731
2023-05-21T11:46:55.952Z,24.9069
2023-05-21T11:47:57.917Z,24.9511
2023-05-21T11:48:59.915Z,25.0113
2023-05-21T11:50:01.953Z,25.0456
2023-05-21T11:51:04.012Z,24.9197
2023-05-21T11:52:06.064Z,24.8659
2023-05-21T11:53:08.127Z,24.9788
2023-05-21T11:54:10.218Z,24.9528
2023-05-21T11:55:12.462Z,24.9511
2023-05-21T11:56:14.235Z,25.0325
2023-05-21T11:57:16.322Z,25.1380
2023-05-21T11:58:18.354Z,25.0711
2023-05-21T11:59:20.942Z,25.0230
2023-05-21T12:00:22.484Z,25.0918
2023-05-21T12:01:24.455Z,25.0748
2023-05-21T12:02:26.555Z,25.0668
2023-05-21T12:03:28.595Z,24.9827
2023-05-21T12:04:30.575Z,24.9176
2023-05-21T12:05:32.698Z,24.9392
2023-05-21T12:06:34.695Z,25.0004
2023-05-21T12:07:36.755Z,25.0783
2023-05-21T12:08:38.753Z,25.1337
2023-05-21T12:09:40.895Z,25.2323
2023-05-21T12:10:44.427Z,25.3209
2023-05-21T12:11:44.907Z,25.4556
2023-05-21T12:12:55.610Z,25.5215
2023-05-21T12:13:49.010Z,25.5657
2023-05-21T12:14:51.017Z,25.6037
2023-05-21T12:15:53.069Z,25.6616
2023-05-21T12:16:55.163Z,25.7612
2023-05-21T12:17:57.396Z,25.7080
2023-05-21T12:18:59.250Z,25.6811
2023-05-21T12:20:01.290Z,25.7200
2023-05-21T12:21:03.349Z,25.7255
2023-05-21T12:22:05.368Z,25.7820
2023-05-21T12:23:07.418Z,25.8504
2023-05-21T12:24:09.547Z,25.8214
2023-05-21T12:25:11.535Z,25.8937
2023-05-21T12:26:13.586Z,25.8668
2023-05-21T12:27:15.735Z,25.8785
2023-05-21T12:28:17.687Z,25.9202
2023-05-21T12:29:19.702Z,25.8925
2023-05-21T12:30:21.802Z,25.8859
2023-05-21T12:31:23.846Z,25.9040
2023-05-21T12:32:25.918Z,25.9246
2023-05-21T12:33:27.894Z,25.9749
2023-05-21T12:34:29.943Z,25.9174
2023-05-21T12:35:32.082Z,25.8997
2023-05-21T12:36:34.071Z,25.8882
2023-05-21T12:37:36.111Z,25.8837
2023-05-21T12:38:38.126Z,25.8880
2023-05-21T12:39:40.175Z,25.9322
2023-05-21T12:40:42.234Z,25.9369
2023-05-21T12:41:44.281Z,25.9531
2023-05-21T12:42:46.325Z,25.9377
2023-05-21T12:43:48.371Z,25.9841
2023-05-21T12:44:50.404Z,25.9252
2023-05-21T12:45:52.503Z,25.9044
2023-05-21T12:46:54.513Z,25.9334
2023-05-21T12:47:56.753Z,25.9161
2023-05-21T12:48:58.589Z,25.8440
2023-05-21T12:50:00.641Z,25.8134
2023-05-21T12:51:02.704Z,25.7444
2023-05-21T12:52:04.761Z,25.5827
2023-05-21T12:53:06.830Z,25.5766
2023-05-21T12:54:08.832Z,25.4546
2023-05-21T12:55:10.895Z,25.2570
2023-05-21T12:56:12.917Z,25.1713
2023-05-21T12:57:14.980Z,25.1380
2023-05-21T12:58:17.002Z,25.0709
2023-05-21T12:59:19.055Z,25.0990
2023-05-21T13:00:21.107Z,25.0452
2023-05-21T13:01:23.167Z,25.0181
2023-05-21T13:02:25.243Z,25.0327
2023-05-21T13:03:27.248Z,25.0199
2023-05-21T13:04:29.308Z,25.0748
2023-05-21T13:05:31.327Z,25.0645
2023-05-21T13:06:33.388Z,25.0033
2023-05-21T13:07:35.417Z,25.0234
2023-05-21T13:08:37.489Z,24.8827
2023-05-21T13:09:39.513Z,24.8881
2023-05-21T13:10:41.565Z,24.8614
2023-05-21T13:11:43.658Z,24.8807
2023-05-21T13:12:45.700Z,24.9638
2023-05-21T13:13:47.727Z,24.9501
2023-05-21T13:14:49.773Z,24.9390
2023-05-21T13:15:51.802Z,24.8540
2023-05-21T13:16:53.869Z,24.9544
2023-05-21T13:17:56.948Z,24.9187
2023-05-21T13:18:58.031Z,24.8160
2023-05-21T13:20:00.005Z,24.8365
2023-05-21T13:21:02.021Z,24.7202
2023-05-21T13:22:04.097Z,24.7032
2023-05-21T13:23:07.263Z,24.6915
2023-05-21T13:24:08.170Z,24.5697
2023-05-21T13:25:10.235Z,24.5195
2023-05-21T13:26:12.283Z,24.5434
2023-05-21T13:27:14.330Z,24.4869
2023-05-21T13:28:16.359Z,24.5867
2023-05-21T13:29:18.437Z,24.4544
2023-05-21T13:30:20.486Z,24.5255
2023-05-21T13:31:22.492Z,24.5183
2023-05-21T13:32:24.622Z,24.5986
2023-05-21T13:33:26.801Z,24.5910
2023-05-21T13:34:28.637Z,24.5974
2023-05-21T13:35:31.177Z,24.5163
2023-05-21T13:36:32.725Z,24.5109
2023-05-21T13:37:34.765Z,24.6157
2023-05-21T13:38:36.823Z,24.5284
2023-05-21T13:39:38.897Z,24.6582
2023-05-21T13:40:41.102Z,24.6183
2023-05-21T13:41:43.044Z,24.5890
2023-05-21T13:42:45.200Z,24.5900
2023-05-21T13:43:47.117Z,24.5826
2023-05-21T13:44:49.194Z,24.5865
2023-05-21T13:45:51.228Z,24.5879
2023-05-21T13:46:53.353Z,24.5327
2023-05-21T13:47:55.363Z,24.5836
2023-05-21T13:48:57.348Z,24.6436
2023-05-21T13:49:59.412Z,24.6502
2023-05-21T13:51:01.446Z,24.5958
2023-05-21T13:52:03.579Z,24.5701
2023-05-21T13:53:05.485Z,24.5458
2023-05-21T13:54:07.544Z,24.5551
2023-05-21T13:55:09.574Z,24.5873
2023-05-21T13:56:11.637Z,24.5541
2023-05-21T13:57:13.694Z,24.5730
2023-05-21T13:58:15.746Z,24.5639
2023-05-21T13:59:17.763Z,24.4583
2023-05-21T14:00:19.831Z,24.5448
2023-05-21T14:01:21.926Z,24.5306
2023-05-21T14:02:24.042Z,24.5693
2023-05-21T14:03:26.010Z,24.5748
2023-05-21T14:04:28.007Z,24.6438
2023-05-21T14:05:30.021Z,24.6535
2023-05-21T14:06:32.101Z,24.6707
2023-05-21T14:07:34.170Z,24.6005
2023-05-21T14:08:36.214Z,24.5280
2023-05-21T14:09:38.240Z,24.4976
2023-05-21T14:10:40.308Z,24.4939
2023-05-21T14:11:42.404Z,24.5360
2023-05-21T14:12:44.343Z,24.5524
2023-05-21T14:13:46.397Z,24.5608
2023-05-21T14:14:48.498Z,24.6136
2023-05-21T14:15:50.524Z,24.6204
2023-05-21T14:16:52.873Z,24.6514
2023-05-21T14:17:54.782Z,24.6537
2023-05-21T14:18:56.687Z,24.7149
2023-05-21T14:19:58.747Z,24.6475
2023-05-21T14:21:00.764Z,24.8180
2023-05-21T14:22:02.781Z,24.9464
2023-05-21T14:23:04.832Z,24.8918
2023-05-21T14:24:07.016Z,25.0325
2023-05-21T14:25:08.968Z,24.9873
2023-05-21T14:26:11.011Z,24.9565
2023-05-21T14:27:15.273Z,25.0226
2023-05-21T14:28:15.138Z,24.9291
2023-05-21T14:29:17.054Z,24.8940
2023-05-21T14:30:19.116Z,24.8692
2023-05-21T14:31:21.154Z,24.8839
2023-05-21T14:32:23.449Z,24.8172
2023-05-21T14:33:25.270Z,24.7574
2023-05-21T14:34:27.290Z,24.6687
2023-05-21T14:35:29.396Z,24.7574
2023-05-21T14:36:31.543Z,24.7377
2023-05-21T14:37:33.474Z,24.8215
2023-05-21T14:38:35.448Z,24.8410
2023-05-21T14:39:37.507Z,24.8318
2023-05-21T14:40:39.636Z,24.7802
2023-05-21T14:41:41.627Z,24.8012
2023-05-21T14:42:43.681Z,24.7054
2023-05-21T14:43:45.685Z,24.6494
2023-05-21T14:44:47.751Z,24.6590
2023-05-21T14:45:49.786Z,24.6615
2023-05-21T14:46:51.852Z,24.5571
2023-05-21T14:47:53.940Z,24.7036
2023-05-21T14:48:55.912Z,24.7369
2023-05-21T14:49:58.074Z,24.7609
2023-05-21T14:51:00.072Z,24.7823
2023-05-21T14:52:02.050Z,24.7825
2023-05-21T14:53:04.146Z,24.7759
2023-05-21T14:54:06.129Z,24.7508
2023-05-21T14:55:08.152Z,24.7693
2023-05-21T14:56:10.259Z,24.8162
2023-05-21T14:57:12.355Z,24.7964
2023-05-21T14:58:14.773Z,24.9109
2023-05-21T14:59:16.358Z,24.8595
2023-05-21T15:00:18.420Z,24.8470
2023-05-21T15:01:20.480Z,24.8223
2023-05-21T15:02:22.559Z,24.8071
2023-05-21T15:03:24.710Z,24.8211
2023-05-21T15:04:26.686Z,24.8969
2023-05-21T15:05:28.653Z,24.9435
2023-05-21T15:06:30.696Z,24.9717
2023-05-21T15:07:32.712Z,24.9604
2023-05-21T15:08:34.850Z,25.0027
2023-05-21T15:09:36.817Z,24.9410
2023-05-21T15:10:38.911Z,24.9090
2023-05-21T15:11:40.915Z,24.9530
2023-05-21T15:12:43.032Z,24.9298
2023-05-21T15:13:44.994Z,24.9357
2023-05-21T15:14:47.021Z,24.9747
2023-05-21T15:15:49.114Z,24.9850
2023-05-21T15:16:51.249Z,25.0004
2023-05-21T15:17:53.211Z,25.1845
2023-05-21T15:18:55.238Z,25.2781
2023-05-21T15:19:57.295Z,25.3498
2023-05-21T15:20:59.339Z,25.3412
2023-05-21T15:22:01.405Z,25.3911
2023-05-21T15:24:05.452Z,25.4718
2023-05-21T15:25:07.540Z,25.3404
2023-05-21T15:26:09.554Z,25.3722
2023-05-21T15:27:11.615Z,25.4256
2023-05-21T15:28:13.665Z,25.4792
2023-05-21T15:29:15.708Z,25.5312
2023-05-21T15:30:17.745Z,25.4913
2023-05-21T15:31:19.789Z,25.5139
2023-05-21T15:32:21.920Z,25.5694
2023-05-21T15:33:23.896Z,25.6253
2023-05-21T15:34:25.958Z,25.7091
2023-05-21T15:35:28.148Z,25.7327
2023-05-21T15:36:30.007Z,25.7440
2023-05-21T15:37:32.118Z,25.7988
2023-05-21T15:38:34.133Z,25.7781
2023-05-21T15:39:36.173Z,25.7834
2023-05-21T15:40:38.233Z,25.7629
2023-05-21T15:41:40.280Z,25.7253
2023-05-21T15:42:42.288Z,25.8116
2023-05-21T15:43:44.328Z,25.7814
2023-05-21T15:44:46.449Z,25.6875
2023-05-21T15:45:48.448Z,25.6571
2023-05-21T15:46:50.524Z,25.6150
2023-05-21T15:47:52.669Z,25.5308
2023-05-21T15:48:54.580Z,25.3673
2023-05-21T15:49:56.639Z,25.1908
2023-05-21T15:50:58.655Z,25.0604
2023-05-21T15:52:00.693Z,24.9988
2023-05-21T15:53:02.758Z,24.9185
2023-05-21T15:54:04.785Z,24.7932
2023-05-21T15:55:06.832Z,24.6276
2023-05-21T15:56:08.871Z,24.5649
2023-05-21T15:57:10.951Z,24.4836
2023-05-21T15:58:13.003Z,24.3842
2023-05-21T15:59:15.042Z,24.2692
